Time;durP1;ratioP1;P1;durP2;ratioP2;P2;SDS_P1;SDS_P2;PMS_P1;PMS_P2;Temp;Humidity;BMP_temperature;BMP_pressure;BME280_temperature;BME280_humidity;BME280_pressure;Samples;Min_cycle;Max_cycle;Signal;HPM_P1;HPM_P2
2023/07/24 00:01:36;;;;;;;3.13;2.60;;;17.70;99.90;;;;;;5052848;28;20638;-68
2023/07/24 00:04:01;;;;;;;5.40;2.33;;;17.70;99.90;;;;;;5053056;28;20201;-69
2023/07/24 00:06:27;;;;;;;3.33;2.70;;;17.70;99.90;;;;;;5052346;28;20638;-68
2023/07/24 00:08:53;;;;;;;1.87;1.77;;;17.80;99.90;;;;;;5052873;28;20239;-69
2023/07/24 00:11:18;;;;;;;2.20;1.83;;;17.80;99.90;;;;;;5052706;28;20216;-68
2023/07/24 00:13:45;;;;;;;1.73;1.63;;;17.80;99.90;;;;;;5053203;28;20626;-68
2023/07/24 00:16:10;;;;;;;2.57;1.90;;;17.80;99.90;;;;;;5052910;28;20660;-69
2023/07/24 00:18:36;;;;;;;1.00;0.97;;;17.90;99.90;;;;;;5052864;28;20512;-70
2023/07/24 00:21:02;;;;;;;1.67;1.57;;;18.00;99.90;;;;;;5052788;28;20164;-68
2023/07/24 00:23:27;;;;;;;6.43;1.40;;;18.10;99.90;;;;;;5052882;28;20588;-67
2023/07/24 00:25:54;;;;;;;2.53;2.23;;;18.00;99.90;;;;;;5052841;28;20221;-68
2023/07/24 00:28:19;;;;;;;3.37;3.17;;;18.10;99.90;;;;;;5052785;28;20265;-68
2023/07/24 00:30:45;;;;;;;2.67;1.90;;;18.20;99.90;;;;;;5052631;28;20460;-68
2023/07/24 00:33:11;;;;;;;1.60;1.50;;;18.20;99.90;;;;;;5054781;28;20170;-69
2023/07/24 00:35:36;;;;;;;2.07;1.97;;;18.20;99.90;;;;;;5056578;28;20174;-69
2023/07/24 00:38:02;;;;;;;6.03;2.40;;;18.00;99.90;;;;;;5056555;28;20281;-69
2023/07/24 00:40:27;;;;;;;5.00;2.00;;;18.00;99.90;;;;;;5056534;28;20634;-68
2023/07/24 00:42:53;;;;;;;2.93;2.50;;;17.90;99.90;;;;;;5056447;28;20178;-68
2023/07/24 00:45:21;;;;;;;6.80;3.40;;;17.90;99.90;;;;;;5056755;28;20182;-67
2023/07/24 00:47:46;;;;;;;1.97;0.93;;;17.80;99.90;;;;;;5056407;28;20202;-69
2023/07/24 00:50:13;;;;;;;1.37;1.20;;;17.70;99.90;;;;;;5056164;28;20970;-69
2023/07/24 00:52:39;;;;;;;3.13;2.20;;;17.50;99.90;;;;;;5056237;28;20538;-68
2023/07/24 00:55:06;;;;;;;2.00;1.77;;;17.40;99.90;;;;;;5056359;28;20972;-69
2023/07/24 00:57:33;;;;;;;2.27;2.07;;;17.30;99.90;;;;;;5056334;28;20507;-67
2023/07/24 00:59:59;;;;;;;5.27;2.20;;;17.30;99.90;;;;;;5056187;28;20866;-68
2023/07/24 01:02:25;;;;;;;1.93;1.80;;;17.20;99.90;;;;;;5055997;28;20405;-68
2023/07/24 01:04:51;;;;;;;2.50;1.60;;;17.10;99.90;;;;;;5056120;28;20419;-68
2023/07/24 01:07:17;;;;;;;2.77;2.57;;;17.20;99.90;;;;;;5056060;28;20405;-68
2023/07/24 01:09:43;;;;;;;1.60;1.40;;;17.20;99.90;;;;;;5055967;28;20646;-68
2023/07/24 01:12:22;;;;;;;1.70;1.60;;;17.20;99.90;;;;;;5055975;28;20897;-69
2023/07/24 01:15:14;;;;;;;2.70;1.60;;;17.20;99.90;;;;;;5056177;28;20181;-69
2023/07/24 01:17:44;;;;;;;2.10;1.60;;;16.80;99.90;;;;;;5055883;28;20428;-69
2023/07/24 01:20:12;;;;;;;3.10;2.80;;;17.10;99.90;;;;;;5055922;28;20409;-68
2023/07/24 01:23:12;;;;;;;3.13;2.93;;;17.20;99.90;;;;;;5055544;28;20943;-69
2023/07/24 01:25:50;;;;;;;1.83;1.50;;;17.20;99.90;;;;;;5054978;28;20744;-69
2023/07/24 01:28:16;;;;;;;4.07;2.70;;;17.20;99.90;;;;;;5055947;28;20770;-68
2023/07/24 01:30:41;;;;;;;1.73;1.60;;;17.10;99.90;;;;;;5055516;28;20467;-68
2023/07/24 01:33:07;;;;;;;2.23;2.03;;;17.00;99.90;;;;;;5055556;28;20170;-67
2023/07/24 01:35:33;;;;;;;2.10;1.40;;;17.10;99.90;;;;;;5055955;28;20584;-68
2023/07/24 01:38:00;;;;;;;2.40;2.10;;;17.10;99.90;;;;;;5055704;28;20244;-69
2023/07/24 01:40:25;;;;;;;3.17;2.10;;;17.10;99.90;;;;;;5055406;28;20171;-69
2023/07/24 01:42:51;;;;;;;0.60;0.60;;;17.10;99.90;;;;;;5055162;28;20950;-69
2023/07/24 01:45:17;;;;;;;3.97;3.67;;;17.00;99.90;;;;;;5055457;28;20201;-69
2023/07/24 01:47:43;;;;;;;2.07;1.97;;;17.30;99.90;;;;;;5055322;28;20880;-69
2023/07/24 01:50:09;;;;;;;5.30;3.17;;;17.00;99.90;;;;;;5055104;28;20209;-69
2023/07/24 01:52:34;;;;;;;1.27;1.20;;;17.00;99.90;;;;;;5055069;28;20170;-69
2023/07/24 01:55:00;;;;;;;2.20;2.00;;;16.90;99.90;;;;;;5055385;28;20764;-69
2023/07/24 01:57:25;;;;;;;1.70;1.43;;;16.90;99.90;;;;;;5055237;28;20162;-69
2023/07/24 01:59:51;;;;;;;2.50;1.70;;;16.80;99.90;;;;;;5054995;28;20190;-69
2023/07/24 02:02:17;;;;;;;2.43;2.07;;;16.90;99.90;;;;;;5055296;28;20505;-68
2023/07/24 02:04:42;;;;;;;4.10;2.10;;;17.00;99.90;;;;;;5055202;28;20216;-70
2023/07/24 02:07:08;;;;;;;2.63;2.03;;;17.10;99.90;;;;;;5055245;28;20752;-67
2023/07/24 02:09:34;;;;;;;2.77;2.57;;;17.10;99.90;;;;;;5054772;28;20197;-68
2023/07/24 02:11:59;;;;;;;1.33;1.33;;;17.00;99.90;;;;;;5054701;28;20255;-67
2023/07/24 02:14:26;;;;;;;2.60;2.43;;;16.90;99.90;;;;;;5054896;28;20174;-69
2023/07/24 02:16:52;;;;;;;0.87;0.87;;;16.80;99.90;;;;;;5054712;28;20596;-69
2023/07/24 02:19:17;;;;;;;3.07;1.43;;;16.90;99.90;;;;;;5054642;28;20478;-67
2023/07/24 02:21:43;;;;;;;2.03;1.83;;;16.90;99.90;;;;;;5054414;28;20261;-68
2023/07/24 02:24:08;;;;;;;3.63;3.43;;;16.80;99.90;;;;;;5054650;28;20191;-68
2023/07/24 02:26:34;;;;;;;1.87;1.77;;;16.80;99.90;;;;;;5054625;28;20174;-67
2023/07/24 02:29:00;;;;;;;2.17;1.97;;;16.80;99.90;;;;;;5054493;28;20201;-69
2023/07/24 02:31:26;;;;;;;3.03;1.47;;;16.70;99.90;;;;;;5054307;28;20256;-67
2023/07/24 02:33:51;;;;;;;4.07;2.40;;;16.60;99.90;;;;;;5054477;28;20174;-68
2023/07/24 02:36:17;;;;;;;2.00;0.83;;;16.60;99.90;;;;;;5054432;28;20413;-69
2023/07/24 02:38:43;;;;;;;2.87;2.67;;;16.60;99.90;;;;;;5054389;28;20198;-69
2023/07/24 02:41:08;;;;;;;4.40;1.60;;;16.60;99.90;;;;;;5054112;28;20174;-68
2023/07/24 02:43:34;;;;;;;6.00;2.67;;;16.60;99.90;;;;;;5054366;28;20232;-69
2023/07/24 02:46:02;;;;;;;3.90;2.70;;;16.60;99.90;;;;;;5054329;28;20623;-68
2023/07/24 02:48:29;;;;;;;2.53;1.90;;;16.30;99.90;;;;;;5054247;28;20198;-69
2023/07/24 02:50:54;;;;;;;1.60;1.33;;;16.70;99.90;;;;;;5053794;28;20469;-68
2023/07/24 02:53:20;;;;;;;1.67;1.57;;;16.70;99.90;;;;;;5054255;28;20492;-69
2023/07/24 02:55:46;;;;;;;2.77;2.03;;;16.70;99.90;;;;;;5053272;28;20409;-68
2023/07/24 02:58:13;;;;;;;2.07;1.97;;;16.70;99.90;;;;;;5053953;28;20240;-68
2023/07/24 03:00:39;;;;;;;1.60;1.50;;;16.70;99.90;;;;;;5053906;28;20170;-68
2023/07/24 03:03:05;;;;;;;3.17;2.87;;;16.60;99.90;;;;;;5054048;28;20404;-67
2023/07/24 03:05:31;;;;;;;2.27;2.07;;;16.60;99.90;;;;;;5054069;28;20412;-67
2023/07/24 03:07:57;;;;;;;2.07;1.97;;;16.70;99.90;;;;;;5053748;28;20943;-69
2023/07/24 03:10:23;;;;;;;3.97;2.77;;;16.70;99.90;;;;;;5053746;28;20551;-66
2023/07/24 03:12:49;;;;;;;1.73;1.33;;;16.70;99.90;;;;;;5053651;28;20771;-66
2023/07/24 03:15:15;;;;;;;1.50;1.40;;;16.70;99.90;;;;;;5053947;28;20409;-68
2023/07/24 03:17:40;;;;;;;2.00;1.90;;;17.00;99.90;;;;;;5054113;28;20177;-68
2023/07/24 03:20:15;;;;;;;2.10;1.77;;;16.80;99.90;;;;;;5053669;28;20623;-68
2023/07/24 03:22:42;;;;;;;2.20;1.27;;;16.90;99.90;;;;;;5053437;28;20177;-69
2023/07/24 03:25:08;;;;;;;1.90;1.33;;;17.00;99.90;;;;;;5053568;28;20469;-68
2023/07/24 03:27:34;;;;;;;1.33;1.30;;;16.90;99.90;;;;;;5053558;28;20409;-68
2023/07/24 03:29:59;;;;;;;1.97;1.53;;;17.00;99.90;;;;;;5052459;28;20412;-68
2023/07/24 03:32:25;;;;;;;3.07;2.60;;;17.10;99.90;;;;;;5051307;28;20232;-69
2023/07/24 03:34:51;;;;;;;3.00;1.67;;;16.90;99.90;;;;;;5053508;28;20196;-67
2023/07/24 03:37:17;;;;;;;1.97;1.63;;;17.00;99.90;;;;;;5052555;28;20546;-68
2023/07/24 03:39:42;;;;;;;0.80;0.80;;;17.00;99.90;;;;;;5053263;28;20202;-69
2023/07/24 03:42:14;;;;;;;3.33;3.03;;;17.10;99.90;;;;;;5053191;28;20495;-68
2023/07/24 03:44:40;;;;;;;3.73;1.97;;;17.30;99.90;;;;;;5053545;28;20166;-67
2023/07/24 03:47:06;;;;;;;1.43;1.23;;;17.30;99.90;;;;;;5053258;28;20436;-68
2023/07/24 03:49:32;;;;;;;3.60;1.90;;;17.40;99.90;;;;;;5053042;28;20452;-69
2023/07/24 03:51:57;;;;;;;3.07;2.03;;;17.40;99.90;;;;;;5052978;28;20463;-68
2023/07/24 03:54:23;;;;;;;1.87;1.77;;;17.40;99.90;;;;;;5053280;28;20623;-69
2023/07/24 03:56:48;;;;;;;2.00;1.53;;;17.50;99.90;;;;;;5053338;28;20202;-68
2023/07/24 03:59:14;;;;;;;1.90;1.03;;;17.50;99.90;;;;;;5053077;28;20201;-67
2023/07/24 04:01:40;;;;;;;3.10;2.83;;;17.50;99.90;;;;;;5052943;28;20650;-67
2023/07/24 04:04:05;;;;;;;3.17;2.37;;;17.60;99.90;;;;;;5053487;28;20645;-69
2023/07/24 04:06:31;;;;;;;1.37;1.27;;;17.60;99.90;;;;;;5054047;28;20581;-69
2023/07/24 04:08:57;;;;;;;8.70;2.30;;;17.70;99.90;;;;;;5057066;28;20204;-67
2023/07/24 04:11:22;;;;;;;0.93;0.93;;;17.80;99.90;;;;;;5056853;28;20612;-69
2023/07/24 04:13:48;;;;;;;2.97;2.30;;;17.90;99.90;;;;;;5057124;28;20248;-68
2023/07/24 04:16:13;;;;;;;1.03;1.03;;;17.90;99.90;;;;;;5057008;28;20231;-68
2023/07/24 04:18:39;;;;;;;2.03;1.83;;;17.90;99.90;;;;;;5056961;28;20532;-68
2023/07/24 04:21:04;;;;;;;2.03;1.83;;;18.00;99.90;;;;;;5056863;28;20170;-68
2023/07/24 04:23:30;;;;;;;0.97;0.97;;;18.00;99.90;;;;;;5056975;28;20305;-69
2023/07/24 04:25:56;;;;;;;2.30;1.30;;;18.10;99.90;;;;;;5056791;28;20178;-67
2023/07/24 04:28:21;;;;;;;1.67;1.50;;;18.00;99.90;;;;;;5057133;28;20308;-68
2023/07/24 04:30:47;;;;;;;1.40;1.07;;;18.00;99.90;;;;;;5056491;28;20198;-67
2023/07/24 04:33:13;;;;;;;1.70;1.30;;;18.10;99.90;;;;;;5056912;28;20178;-67
2023/07/24 04:35:38;;;;;;;1.13;1.03;;;18.20;99.90;;;;;;5056647;28;20189;-67
2023/07/24 04:38:04;;;;;;;3.13;2.20;;;18.30;99.90;;;;;;5054510;28;20674;-69
2023/07/24 04:40:29;;;;;;;6.43;2.30;;;18.40;99.90;;;;;;5054853;28;20232;-69
2023/07/24 04:42:55;;;;;;;2.43;2.23;;;18.50;99.90;;;;;;5055013;28;20175;-67
2023/07/24 04:45:21;;;;;;;3.13;2.00;;;18.60;99.90;;;;;;5054220;28;20665;-69
2023/07/24 04:47:46;;;;;;;0.93;0.93;;;18.80;99.90;;;;;;5054499;28;20194;-67
2023/07/24 04:50:12;;;;;;;2.73;2.63;;;18.60;99.90;;;;;;5054501;28;20256;-68
2023/07/24 04:52:37;;;;;;;2.37;2.17;;;18.50;99.90;;;;;;5055133;28;20670;-68
2023/07/24 04:55:03;;;;;;;1.40;1.07;;;18.40;99.90;;;;;;5055239;28;20177;-68
2023/07/24 04:57:29;;;;;;;1.70;1.53;;;18.20;99.90;;;;;;5055216;28;20179;-68
2023/07/24 04:59:55;;;;;;;2.30;2.20;;;18.20;99.90;;;;;;5056244;28;20411;-68
2023/07/24 05:02:20;;;;;;;4.13;3.60;;;18.10;99.90;;;;;;5056140;28;20197;-69
2023/07/24 05:04:46;;;;;;;1.70;1.37;;;18.00;99.90;;;;;;5056213;28;20257;-68
2023/07/24 05:07:11;;;;;;;1.77;1.67;;;17.90;99.90;;;;;;5056361;28;20233;-69
2023/07/24 05:09:37;;;;;;;3.60;2.13;;;17.90;99.90;;;;;;5056052;28;20194;-69
2023/07/24 05:12:03;;;;;;;3.90;2.73;;;18.00;99.90;;;;;;5055740;28;20201;-68
2023/07/24 05:14:28;;;;;;;2.07;1.83;;;18.00;99.90;;;;;;5055943;28;20508;-69
2023/07/24 05:16:54;;;;;;;1.83;1.73;;;18.00;99.90;;;;;;5055918;28;20492;-67
2023/07/24 05:19:20;;;;;;;2.03;1.63;;;18.00;99.90;;;;;;5054079;28;20190;-67
2023/07/24 05:21:45;;;;;;;2.10;1.97;;;18.10;99.90;;;;;;5055658;28;20189;-68
2023/07/24 05:24:11;;;;;;;2.20;2.00;;;18.10;99.90;;;;;;5054473;28;20181;-67
2023/07/24 05:26:36;;;;;;;4.10;2.40;;;18.10;99.90;;;;;;5054025;28;20634;-68
2023/07/24 05:29:02;;;;;;;1.50;1.40;;;18.00;99.90;;;;;;5054856;28;20251;-68
2023/07/24 05:31:27;;;;;;;1.80;1.70;;;17.90;99.90;;;;;;5054667;28;20205;-67
2023/07/24 05:33:53;;;;;;;2.07;1.87;;;17.70;99.90;;;;;;5054755;28;20166;-68
2023/07/24 05:36:19;;;;;;;2.10;1.90;;;17.70;99.90;;;;;;5054715;28;20170;-68
2023/07/24 05:38:44;;;;;;;3.03;2.73;;;17.70;99.90;;;;;;5055478;28;20197;-67
2023/07/24 05:41:10;;;;;;;1.93;1.73;;;17.70;99.90;;;;;;5055426;28;20662;-67
2023/07/24 05:43:35;;;;;;;4.83;1.67;;;17.80;99.90;;;;;;5055622;28;20291;-68
2023/07/24 05:46:01;;;;;;;2.13;2.00;;;17.90;99.90;;;;;;5055368;28;20170;-68
2023/07/24 05:48:27;;;;;;;1.47;1.37;;;18.00;99.90;;;;;;5055367;28;20198;-68
2023/07/24 05:50:52;;;;;;;1.77;1.67;;;18.00;99.90;;;;;;5054996;28;20303;-68
2023/07/24 05:53:18;;;;;;;3.07;2.50;;;18.10;99.90;;;;;;5055277;28;20269;-68
2023/07/24 05:55:44;;;;;;;3.53;2.40;;;18.30;99.90;;;;;;5055313;28;20169;-68
2023/07/24 05:58:10;;;;;;;3.13;2.00;;;18.40;99.90;;;;;;5055060;28;20199;-68
2023/07/24 06:00:39;;;;;;;3.97;3.00;;;18.50;99.90;;;;;;5055596;28;20183;-68
2023/07/24 06:03:04;;;;;;;4.20;1.73;;;18.60;99.90;;;;;;5055187;28;20411;-67
2023/07/24 06:05:30;;;;;;;2.27;2.17;;;18.70;99.90;;;;;;5055117;28;20414;-67
2023/07/24 06:07:55;;;;;;;3.77;3.47;;;18.80;99.90;;;;;;5055118;28;20209;-68
2023/07/24 06:10:21;;;;;;;2.67;2.57;;;18.80;99.90;;;;;;5054863;28;20231;-68
2023/07/24 06:12:47;;;;;;;2.97;2.77;;;18.90;99.90;;;;;;5054747;28;20227;-67
2023/07/24 06:15:13;;;;;;;6.20;2.10;;;19.00;99.90;;;;;;5055035;28;20526;-67
2023/07/24 06:17:39;;;;;;;1.20;1.20;;;18.70;99.90;;;;;;5054834;28;20971;-68
2023/07/24 06:20:06;;;;;;;1.43;1.33;;;19.30;99.90;;;;;;5054883;28;20495;-68
2023/07/24 06:22:31;;;;;;;2.03;1.40;;;19.60;99.90;;;;;;5054709;28;20166;-69
2023/07/24 06:24:57;;;;;;;2.17;2.07;;;20.10;99.90;;;;;;5054785;28;20410;-68
2023/07/24 06:27:23;;;;;;;2.40;2.27;;;20.70;99.90;;;;;;5054615;28;20518;-67
2023/07/24 06:29:48;;;;;;;1.83;1.20;;;21.30;99.90;;;;;;5053615;28;20581;-68
2023/07/24 06:32:14;;;;;;;1.60;1.50;;;21.80;99.90;;;;;;5054178;28;20251;-68
2023/07/24 06:34:39;;;;;;;2.53;1.93;;;22.00;99.90;;;;;;5054498;28;20662;-68
2023/07/24 06:37:05;;;;;;;1.17;1.10;;;21.80;99.90;;;;;;5054566;28;20181;-68
2023/07/24 06:39:33;;;;;;;2.50;1.63;;;21.50;99.80;;;;;;5054467;28;20190;-66
2023/07/24 06:41:58;;;;;;;0.63;0.63;;;21.10;99.90;;;;;;5054145;28;20173;-69
2023/07/24 06:44:24;;;;;;;1.50;1.40;;;20.70;99.90;;;;;;5054358;28;20811;-67
2023/07/24 06:46:50;;;;;;;1.97;1.87;;;20.50;99.90;;;;;;5054350;28;20257;-69
2023/07/24 06:49:15;;;;;;;1.60;1.03;;;20.40;99.90;;;;;;5054007;28;20190;-68
2023/07/24 06:51:41;;;;;;;1.63;1.53;;;20.30;99.90;;;;;;5054032;28;20244;-68
2023/07/24 06:54:07;;;;;;;2.00;1.13;;;20.30;99.90;;;;;;5054134;28;20253;-68
2023/07/24 06:56:32;;;;;;;2.17;2.07;;;20.30;99.90;;;;;;5054107;28;20236;-68
2023/07/24 06:58:58;;;;;;;1.33;1.13;;;20.40;99.90;;;;;;5053978;28;20659;-68
2023/07/24 07:01:24;;;;;;;1.90;0.77;;;20.80;99.90;;;;;;5053894;28;20203;-69
2023/07/24 07:03:50;;;;;;;1.70;1.33;;;21.20;99.90;;;;;;5054191;28;20201;-69
2023/07/24 07:06:15;;;;;;;2.00;1.67;;;21.40;99.90;;;;;;5054040;28;20189;-68
2023/07/24 07:08:41;;;;;;;1.10;1.10;;;21.50;99.90;;;;;;5053954;28;20435;-68
2023/07/24 07:11:07;;;;;;;0.87;0.87;;;21.60;99.90;;;;;;5052310;28;20451;-69
2023/07/24 07:13:32;;;;;;;2.03;1.37;;;21.70;99.90;;;;;;5054056;28;20181;-68
2023/07/24 07:15:58;;;;;;;2.00;1.80;;;21.90;99.90;;;;;;5053009;28;20177;-67
2023/07/24 07:18:23;;;;;;;2.03;1.50;;;22.10;99.90;;;;;;5051817;28;20197;-68
2023/07/24 07:20:51;;;;;;;0.97;0.87;;;22.30;99.90;;;;;;5052791;28;20235;-68
2023/07/24 07:23:17;;;;;;;1.93;1.17;;;22.50;99.90;;;;;;5052979;28;20178;-67
2023/07/24 07:25:44;;;;;;;1.37;1.13;;;22.80;99.90;;;;;;5052817;28;20818;-67
2023/07/24 07:28:14;;;;;;;2.73;1.50;;;22.80;99.90;;;;;;5052901;28;20413;-68
2023/07/24 07:30:40;;;;;;;0.90;0.90;;;22.70;99.90;;;;;;5052600;28;20430;-67
2023/07/24 07:33:06;;;;;;;1.37;1.00;;;22.50;99.10;;;;;;5053548;28;20408;-66
2023/07/24 07:35:32;;;;;;;1.13;1.03;;;22.20;99.70;;;;;;5053401;28;20465;-67
2023/07/24 07:37:58;;;;;;;1.63;1.53;;;21.90;99.90;;;;;;5053487;28;20193;-68
2023/07/24 07:40:24;;;;;;;1.13;1.07;;;21.50;99.90;;;;;;5053349;28;20435;-66
2023/07/24 07:42:50;;;;;;;0.63;0.63;;;21.20;99.90;;;;;;5052878;28;20434;-68
2023/07/24 07:45:15;;;;;;;1.07;0.97;;;21.10;99.90;;;;;;5053469;28;20177;-68
2023/07/24 07:47:41;;;;;;;1.03;0.60;;;21.10;99.90;;;;;;5053278;28;20624;-68
2023/07/24 07:50:07;;;;;;;1.50;0.93;;;20.90;99.90;;;;;;5053020;28;20196;-67
2023/07/24 07:52:33;;;;;;;1.53;0.70;;;20.90;99.90;;;;;;5052944;28;20206;-68
2023/07/24 07:54:59;;;;;;;0.70;0.70;;;20.90;99.90;;;;;;5053117;28;20406;-68
2023/07/24 07:57:25;;;;;;;1.93;1.80;;;20.80;99.90;;;;;;5053189;28;20171;-69
2023/07/24 07:59:51;;;;;;;1.90;1.40;;;20.80;99.90;;;;;;5053103;28;20752;-68
2023/07/24 08:02:16;;;;;;;3.97;1.70;;;20.80;99.90;;;;;;5053047;28;20175;-68
2023/07/24 08:04:42;;;;;;;1.63;1.53;;;20.80;99.90;;;;;;5053248;28;20178;-67
2023/07/24 08:07:07;;;;;;;0.83;0.83;;;21.00;99.90;;;;;;5053230;28;20172;-68
2023/07/24 08:09:33;;;;;;;1.10;1.10;;;21.20;99.90;;;;;;5052994;28;20691;-68
2023/07/24 08:11:59;;;;;;;0.63;0.60;;;21.40;99.90;;;;;;5052830;28;20205;-68
2023/07/24 08:14:25;;;;;;;0.63;0.63;;;21.40;99.90;;;;;;5053100;28;20192;-68
2023/07/24 08:16:51;;;;;;;1.27;1.27;;;21.40;99.90;;;;;;5053117;28;20440;-68
2023/07/24 08:19:16;;;;;;;0.60;0.60;;;21.40;99.90;;;;;;5052847;28;20200;-68
2023/07/24 08:21:42;;;;;;;1.17;1.03;;;21.70;99.90;;;;;;5052695;28;20182;-68
2023/07/24 08:24:08;;;;;;;1.27;0.70;;;22.30;99.90;;;;;;5052912;28;20188;-68
2023/07/24 08:26:33;;;;;;;1.43;1.27;;;23.30;99.90;;;;;;5052986;28;20626;-68
2023/07/24 08:28:59;;;;;;;1.27;1.00;;;24.30;98.10;;;;;;5053283;28;20202;-68
2023/07/24 08:31:24;;;;;;;1.70;1.60;;;25.20;97.60;;;;;;5052500;28;20206;-68
2023/07/24 08:33:50;;;;;;;1.23;1.13;;;25.40;93.80;;;;;;5052989;28;20181;-68
2023/07/24 08:36:16;;;;;;;1.40;1.17;;;25.50;93.10;;;;;;5052818;28;20578;-68
2023/07/24 08:38:42;;;;;;;1.37;0.87;;;25.70;93.20;;;;;;5052684;28;20215;-67
2023/07/24 08:41:12;;;;;;;1.53;1.43;;;26.40;93.60;;;;;;5052541;28;20166;-69
2023/07/24 08:43:40;;;;;;;2.33;1.03;;;27.10;91.00;;;;;;5052901;28;20884;-69
2023/07/24 08:46:07;;;;;;;1.20;1.10;;;27.10;90.80;;;;;;5052574;28;20431;-68
2023/07/24 08:48:38;;;;;;;2.43;1.07;;;26.90;91.80;;;;;;5052825;28;20432;-68
2023/07/24 08:51:06;;;;;;;1.57;1.47;;;27.10;90.20;;;;;;5052198;28;20463;-67
2023/07/24 08:53:36;;;;;;;1.77;1.07;;;27.70;88.10;;;;;;5053530;28;20447;-68
2023/07/24 08:56:03;;;;;;;1.70;1.10;;;28.10;84.70;;;;;;5056356;28;20396;-68
2023/07/24 08:58:28;;;;;;;0.87;0.73;;;28.30;84.10;;;;;;5056241;28;20426;-69
2023/07/24 09:00:56;;;;;;;1.33;1.20;;;28.10;84.30;;;;;;5056189;28;20895;-69
2023/07/24 09:03:22;;;;;;;2.67;1.27;;;27.90;86.10;;;;;;5056134;28;20178;-68
2023/07/24 09:05:48;;;;;;;1.10;1.00;;;27.70;85.90;;;;;;5056157;28;20416;-68
2023/07/24 09:08:14;;;;;;;2.30;2.10;;;27.50;84.30;;;;;;5056289;28;20194;-68
2023/07/24 09:10:40;;;;;;;1.30;0.93;;;27.50;84.70;;;;;;5055924;28;20688;-68
2023/07/24 09:13:06;;;;;;;1.73;1.63;;;27.10;85.90;;;;;;5056131;28;20397;-67
2023/07/24 09:15:42;;;;;;;2.03;1.27;;;26.60;84.70;;;;;;5056067;28;20462;-68
2023/07/24 09:18:09;;;;;;;1.53;1.13;;;25.80;87.60;;;;;;5056021;28;20431;-68
2023/07/24 09:20:43;;;;;;;1.30;1.20;;;25.10;90.60;;;;;;5055951;28;20491;-68
2023/07/24 09:23:10;;;;;;;1.30;0.73;;;24.50;91.40;;;;;;5056076;28;20438;-68
2023/07/24 09:25:38;;;;;;;2.40;1.13;;;24.30;92.00;;;;;;5055735;28;20430;-69
2023/07/24 09:28:10;;;;;;;3.47;2.00;;;24.00;92.70;;;;;;5055770;28;20403;-67
2023/07/24 09:30:36;;;;;;;2.73;1.43;;;23.70;93.50;;;;;;5054971;28;20455;-67
2023/07/24 09:33:01;;;;;;;2.20;1.43;;;23.30;94.50;;;;;;5055762;28;20459;-69
2023/07/24 09:35:28;;;;;;;4.03;0.87;;;22.80;95.20;;;;;;5055971;28;20200;-67
2023/07/24 09:38:06;;;;;;;4.83;1.20;;;22.20;96.40;;;;;;5055955;28;20204;-69
2023/07/24 09:40:44;;;;;;;1.57;1.33;;;21.60;97.30;;;;;;5055752;28;20445;-67
2023/07/24 09:43:18;;;;;;;1.37;0.77;;;21.10;99.00;;;;;;5055493;28;20769;-68
2023/07/24 09:45:44;;;;;;;0.50;0.50;;;20.70;99.90;;;;;;5055628;28;20838;-68
2023/07/24 09:48:14;;;;;;;0.87;0.87;;;20.40;99.90;;;;;;5055627;28;20429;-68
2023/07/24 09:50:41;;;;;;;1.07;0.90;;;20.20;99.90;;;;;;5055475;28;20882;-68
2023/07/24 09:53:18;;;;;;;0.60;0.60;;;20.00;99.90;;;;;;5055222;28;20896;-67
2023/07/24 09:55:49;;;;;;;1.00;1.00;;;19.60;99.90;;;;;;5055340;28;20411;-68
2023/07/24 09:58:15;;;;;;;0.70;0.70;;;19.30;99.90;;;;;;5055182;28;20423;-68
2023/07/24 10:00:42;;;;;;;0.77;0.57;;;19.10;99.90;;;;;;5055020;28;20815;-69
2023/07/24 10:03:09;;;;;;;0.67;0.67;;;19.10;99.90;;;;;;5053626;28;20412;-67
2023/07/24 10:05:35;;;;;;;0.70;0.60;;;19.10;99.90;;;;;;5054177;28;20428;-67
2023/07/24 10:08:02;;;;;;;0.40;0.40;;;18.90;99.90;;;;;;5054225;28;20804;-68
2023/07/24 10:10:32;;;;;;;0.63;0.63;;;18.80;99.90;;;;;;5054189;28;20460;-68
2023/07/24 10:12:58;;;;;;;5.80;0.83;;;18.80;99.90;;;;;;5054075;28;20809;-68
2023/07/24 10:15:24;;;;;;;1.00;0.73;;;18.70;99.90;;;;;;5054148;28;20405;-68
2023/07/24 10:18:00;;;;;;;1.03;1.03;;;18.60;99.90;;;;;;5054450;28;20406;-66
2023/07/24 10:20:39;;;;;;;0.70;0.70;;;18.70;99.90;;;;;;5055521;28;20397;-67
2023/07/24 10:23:07;;;;;;;0.70;0.70;;;18.60;99.90;;;;;;5054150;28;20408;-68
2023/07/24 10:25:35;;;;;;;0.60;0.60;;;18.50;99.90;;;;;;5054674;28;20489;-67
2023/07/24 10:28:10;;;;;;;2.73;1.80;;;18.40;99.90;;;;;;5054363;28;20790;-68
2023/07/24 10:30:40;;;;;;;0.60;0.60;;;18.50;99.90;;;;;;5054622;28;20895;-68
2023/07/24 10:33:11;;;;;;;0.63;0.63;;;18.40;99.90;;;;;;5054710;28;20401;-68
2023/07/24 10:35:46;;;;;;;0.60;0.53;;;18.30;99.90;;;;;;5054582;28;20450;-67
2023/07/24 10:38:16;;;;;;;0.40;0.40;;;18.40;99.90;;;;;;5054638;28;20860;-68
2023/07/24 10:40:44;;;;;;;0.50;0.50;;;18.40;99.90;;;;;;5054310;28;20399;-67
2023/07/24 10:43:13;;;;;;;0.60;0.60;;;18.60;99.90;;;;;;5054552;28;20397;-68
2023/07/24 10:45:42;;;;;;;0.40;0.40;;;18.90;99.90;;;;;;5054275;28;20461;-68
2023/07/24 10:48:11;;;;;;;0.60;0.60;;;19.30;99.90;;;;;;5054218;28;20429;-67
2023/07/24 10:50:41;;;;;;;1.33;1.00;;;19.60;99.90;;;;;;5054396;28;20458;-69
2023/07/24 10:53:07;;;;;;;1.97;1.00;;;19.90;99.90;;;;;;5053605;28;20405;-67
2023/07/24 10:55:33;;;;;;;0.93;0.63;;;20.00;99.90;;;;;;5053553;28;20892;-67
2023/07/24 10:57:59;;;;;;;0.70;0.50;;;20.20;99.90;;;;;;5054206;28;20457;-68
2023/07/24 11:00:25;;;;;;;0.80;0.80;;;20.30;99.90;;;;;;5054675;28;20513;-67
2023/07/24 11:02:55;;;;;;;0.40;0.40;;;20.60;99.90;;;;;;5053729;28;20171;-68
2023/07/24 11:05:22;;;;;;;2.93;1.37;;;20.90;99.90;;;;;;5054154;28;20396;-67
2023/07/24 11:07:48;;;;;;;1.27;1.17;;;21.10;99.90;;;;;;5053939;28;20407;-68
2023/07/24 11:10:19;;;;;;;0.73;0.73;;;21.10;99.90;;;;;;5054015;28;20407;-67
2023/07/24 11:12:45;;;;;;;0.60;0.60;;;21.20;99.90;;;;;;5053639;28;20533;-68
2023/07/24 11:15:11;;;;;;;0.80;0.80;;;21.30;99.80;;;;;;5053982;28;20486;-69
2023/07/24 11:17:40;;;;;;;0.70;0.70;;;21.10;99.90;;;;;;5053293;28;20213;-68
2023/07/24 11:20:16;;;;;;;0.67;0.67;;;21.00;99.10;;;;;;5053706;28;20406;-67
2023/07/24 11:22:43;;;;;;;1.53;0.80;;;21.20;99.60;;;;;;5053784;28;20393;-67
2023/07/24 11:25:12;;;;;;;0.40;0.40;;;21.00;99.90;;;;;;5053804;28;20802;-68
2023/07/24 11:27:43;;;;;;;0.40;0.40;;;20.80;99.90;;;;;;5053492;28;20402;-68
2023/07/24 11:30:11;;;;;;;0.40;0.40;;;20.70;99.90;;;;;;5053712;28;20406;-68
2023/07/24 11:32:39;;;;;;;0.40;0.40;;;20.80;99.90;;;;;;5053375;28;20502;-67
2023/07/24 11:35:05;;;;;;;0.50;0.50;;;20.90;99.90;;;;;;5053621;28;20446;-68
2023/07/24 11:37:31;;;;;;;1.20;0.73;;;21.10;99.50;;;;;;5053536;28;20435;-67
2023/07/24 11:40:09;;;;;;;1.53;0.87;;;21.00;99.70;;;;;;5053393;28;20406;-68
2023/07/24 11:42:39;;;;;;;0.97;0.97;;;20.80;99.90;;;;;;5052552;28;20401;-68
2023/07/24 11:45:07;;;;;;;0.30;0.30;;;20.40;99.90;;;;;;5051035;28;20782;-68
2023/07/24 11:47:44;;;;;;;0.50;0.50;;;20.10;99.90;;;;;;5051365;28;20409;-68
2023/07/24 11:50:10;;;;;;;1.23;0.83;;;20.30;99.90;;;;;;5052412;28;20433;-68
2023/07/24 11:52:47;;;;;;;1.50;1.40;;;20.40;99.90;;;;;;5052412;28;20405;-68
2023/07/24 11:55:17;;;;;;;0.50;0.50;;;20.50;99.90;;;;;;5052591;28;20168;-68
2023/07/24 11:57:43;;;;;;;2.20;0.60;;;20.70;99.90;;;;;;5052538;28;20405;-67
2023/07/24 12:00:20;;;;;;;0.77;0.57;;;20.50;99.90;;;;;;5053670;28;20414;-67
2023/07/24 12:02:46;;;;;;;5.80;1.50;;;20.40;99.90;;;;;;5053101;28;20173;-67
2023/07/24 12:05:12;;;;;;;0.83;0.60;;;20.30;99.90;;;;;;5053295;28;20401;-68
2023/07/24 12:07:38;;;;;;;0.60;0.60;;;20.10;99.90;;;;;;5053386;28;20259;-67
2023/07/24 12:10:07;;;;;;;1.13;0.53;;;20.10;99.90;;;;;;5053066;28;20170;-67
2023/07/24 12:12:47;;;;;;;0.43;0.43;;;20.00;99.90;;;;;;5053520;28;20277;-67
2023/07/24 12:15:14;;;;;;;0.90;0.90;;;20.00;99.90;;;;;;5053680;28;20427;-67
2023/07/24 12:17:40;;;;;;;0.50;0.50;;;20.30;99.90;;;;;;5053078;28;20400;-68
2023/07/24 12:20:09;;;;;;;0.70;0.70;;;20.30;99.90;;;;;;5053334;28;20922;-68
2023/07/24 12:22:35;;;;;;;0.50;0.50;;;20.40;99.90;;;;;;5053143;28;20404;-68
2023/07/24 12:25:02;;;;;;;1.33;1.23;;;20.60;99.90;;;;;;5052944;28;20494;-68
2023/07/24 12:27:28;;;;;;;0.50;0.50;;;20.70;99.90;;;;;;5053167;28;20406;-68
2023/07/24 12:29:53;;;;;;;0.87;0.60;;;20.80;99.90;;;;;;5056795;28;20767;-67
2023/07/24 12:32:20;;;;;;;0.77;0.53;;;20.90;99.90;;;;;;5056722;28;20662;-67
2023/07/24 12:34:52;;;;;;;0.73;0.73;;;20.80;99.90;;;;;;5056890;28;20561;-68
2023/07/24 12:37:18;;;;;;;0.90;0.73;;;20.60;99.90;;;;;;5056857;28;20439;-68
2023/07/24 12:39:45;;;;;;;0.40;0.40;;;20.40;99.90;;;;;;5056643;28;20882;-69
2023/07/24 12:42:11;;;;;;;0.80;0.80;;;20.20;99.90;;;;;;5056449;28;20466;-69
2023/07/24 12:44:37;;;;;;;0.80;0.60;;;20.00;99.90;;;;;;5057095;28;20412;-69
2023/07/24 12:47:03;;;;;;;1.00;0.53;;;19.70;99.90;;;;;;5056648;28;20401;-67